sensor_id;sensor_type;location;lat;lon;timestamp;pressure;altitude;pressure_sealevel;temperature;humidity
48892;BME280;50130;52.150;5.236;2023-02-28T00:01:10;102997.0;;;1.47;90.4
48892;BME280;50130;52.150;5.236;2023-02-28T00:02:47;102998.0;;;1.59;90.03
48892;BME280;50130;52.150;5.236;2023-02-28T00:06:01;102993.0;;;1.6;90.28
48892;BME280;50130;52.150;5.236;2023-02-28T00:07:37;102992.0;;;1.58;90.44
48892;BME280;50130;52.150;5.236;2023-02-28T00:09:14;102995.0;;;1.61;90.39
48892;BME280;50130;52.150;5.236;2023-02-28T00:10:50;102992.0;;;1.58;90.29
48892;BME280;50130;52.150;5.236;2023-02-28T00:14:03;103002.0;;;1.61;90.48
48892;BME280;50130;52.150;5.236;2023-02-28T00:15:39;103007.0;;;1.63;90.44
48892;BME280;50130;52.150;5.236;2023-02-28T00:17:15;103003.0;;;1.69;90.61
48892;BME280;50130;52.150;5.236;2023-02-28T00:20:27;103006.0;;;1.71;90.87
48892;BME280;50130;52.150;5.236;2023-02-28T00:22:03;103007.0;;;1.73;91.04
48892;BME280;50130;52.150;5.236;2023-02-28T00:23:39;103003.0;;;1.79;91.22
48892;BME280;50130;52.150;5.236;2023-02-28T00:26:55;103009.99999999999;;;1.8;90.98
48892;BME280;50130;52.150;5.236;2023-02-28T00:30:14;102998.0;;;1.99;91.03
48892;BME280;50130;52.150;5.236;2023-02-28T00:31:51;102998.0;;;2.02;90.85
48892;BME280;50130;52.150;5.236;2023-02-28T00:35:06;102999.0;;;1.98;91.29
48892;BME280;50130;52.150;5.236;2023-02-28T00:36:42;102998.0;;;2.02;91.65
48892;BME280;50130;52.150;5.236;2023-02-28T00:38:18;103004.0;;;2.02;91.25
48892;BME280;50130;52.150;5.236;2023-02-28T00:41:32;103003.0;;;1.96;91.31
48892;BME280;50130;52.150;5.236;2023-02-28T00:43:08;103007.0;;;1.93;91.39
48892;BME280;50130;52.150;5.236;2023-02-28T00:44:44;103000.0;;;1.99;91.03
48892;BME280;50130;52.150;5.236;2023-02-28T00:46:20;103002.0;;;1.99;91.0
48892;BME280;50130;52.150;5.236;2023-02-28T00:49:33;102996.0;;;2.04;91.03
48892;BME280;50130;52.150;5.236;2023-02-28T00:51:09;102994.0;;;2.04;91.16
48892;BME280;50130;52.150;5.236;2023-02-28T00:52:45;102996.0;;;2.08;91.14
48892;BME280;50130;52.150;5.236;2023-02-28T00:55:59;102996.0;;;2.14;91.15
48892;BME280;50130;52.150;5.236;2023-02-28T00:57:36;102993.0;;;2.13;91.3
48892;BME280;50130;52.150;5.236;2023-02-28T00:59:12;102991.00000000001;;;2.16;91.34
48892;BME280;50130;52.150;5.236;2023-02-28T01:02:26;102992.0;;;2.19;91.28
48892;BME280;50130;52.150;5.236;2023-02-28T01:04:02;102989.00000000001;;;2.32;90.82
48892;BME280;50130;52.150;5.236;2023-02-28T01:05:38;102990.00000000001;;;2.27;90.93
48892;BME280;50130;52.150;5.236;2023-02-28T01:08:50;102984.99999999999;;;2.23;91.14
48892;BME280;50130;52.150;5.236;2023-02-28T01:10:28;102994.0;;;2.25;91.16
48892;BME280;50130;52.150;5.236;2023-02-28T01:12:04;103000.0;;;2.25;91.35
48892;BME280;50130;52.150;5.236;2023-02-28T01:13:40;102998.0;;;2.29;91.23
48892;BME280;50130;52.150;5.236;2023-02-28T01:16:53;103000.0;;;2.31;91.19
48892;BME280;50130;52.150;5.236;2023-02-28T01:18:29;102999.0;;;2.33;91.09
48892;BME280;50130;52.150;5.236;2023-02-28T01:20:06;102996.0;;;2.35;90.99
48892;BME280;50130;52.150;5.236;2023-02-28T01:23:19;102994.0;;;2.34;91.12
48892;BME280;50130;52.150;5.236;2023-02-28T01:24:56;102997.0;;;2.34;91.51
48892;BME280;50130;52.150;5.236;2023-02-28T01:26:32;102988.00000000001;;;2.33;91.9
48892;BME280;50130;52.150;5.236;2023-02-28T01:29:44;102990.00000000001;;;2.37;92.04
48892;BME280;50130;52.150;5.236;2023-02-28T01:31:22;102986.99999999999;;;2.39;92.19
48892;BME280;50130;52.150;5.236;2023-02-28T01:32:59;102983.99999999999;;;2.52;91.49
48892;BME280;50130;52.150;5.236;2023-02-28T01:34:36;102981.0;;;2.39;91.59
48892;BME280;50130;52.150;5.236;2023-02-28T01:37:51;102978.0;;;2.4;91.63
48892;BME280;50130;52.150;5.236;2023-02-28T01:39:27;102984.99999999999;;;2.42;91.68
48892;BME280;50130;52.150;5.236;2023-02-28T01:41:04;102981.0;;;2.44;91.68
48892;BME280;50130;52.150;5.236;2023-02-28T01:45:24;102984.99999999999;;;2.46;91.6
48892;BME280;50130;52.150;5.236;2023-02-28T01:47:01;102984.99999999999;;;2.52;91.35
48892;BME280;50130;52.150;5.236;2023-02-28T01:50:21;102980.0;;;2.5;91.38
48892;BME280;50130;52.150;5.236;2023-02-28T01:51:58;102979.0;;;2.5;91.42
48892;BME280;50130;52.150;5.236;2023-02-28T01:53:38;102981.0;;;2.52;91.23
48892;BME280;50130;52.150;5.236;2023-02-28T01:57:01;102981.0;;;2.54;91.31
48892;BME280;50130;52.150;5.236;2023-02-28T01:58:41;102977.0;;;2.52;91.24
48892;BME280;50130;52.150;5.236;2023-02-28T02:00:20;102979.0;;;2.48;91.63
48892;BME280;50130;52.150;5.236;2023-02-28T02:01:59;102976.0;;;2.5;91.75
48892;BME280;50130;52.150;5.236;2023-02-28T02:05:15;102972.0;;;2.5;91.84
48892;BME280;50130;52.150;5.236;2023-02-28T02:06:53;102973.0;;;2.52;91.83
48892;BME280;50130;52.150;5.236;2023-02-28T02:08:30;102965.00000000001;;;2.79;90.66
48892;BME280;50130;52.150;5.236;2023-02-28T02:10:12;102963.00000000001;;;2.69;90.63
48892;BME280;50130;52.150;5.236;2023-02-28T02:13:39;102961.99999999999;;;2.69;90.44
48892;BME280;50130;52.150;5.236;2023-02-28T02:15:32;102957.0;;;2.57;90.95
48892;BME280;50130;52.150;5.236;2023-02-28T02:17:18;102947.0;;;2.59;91.04
48892;BME280;50130;52.150;5.236;2023-02-28T02:19:14;102952.0;;;2.56;91.0
48892;BME280;50130;52.150;5.236;2023-02-28T02:27:17;102956.0;;;2.52;92.02
48892;BME280;50130;52.150;5.236;2023-02-28T02:29:59;102958.0;;;2.52;92.37
48892;BME280;50130;52.150;5.236;2023-02-28T02:33:14;102959.99999999999;;;2.54;92.31
48892;BME280;50130;52.150;5.236;2023-02-28T02:35:28;102958.0;;;2.58;92.66
48892;BME280;50130;52.150;5.236;2023-02-28T02:39:02;102958.99999999999;;;2.59;92.65
48892;BME280;50130;52.150;5.236;2023-02-28T02:40:45;102958.99999999999;;;2.6;92.77
48892;BME280;50130;52.150;5.236;2023-02-28T02:42:34;102958.0;;;2.61;92.87
48892;BME280;50130;52.150;5.236;2023-02-28T02:44:20;102959.99999999999;;;2.64;92.81
48892;BME280;50130;52.150;5.236;2023-02-28T02:46:01;102959.99999999999;;;2.66;92.41
48892;BME280;50130;52.150;5.236;2023-02-28T02:47:40;102953.0;;;2.71;92.1
48892;BME280;50130;52.150;5.236;2023-02-28T02:51:01;102954.0;;;2.78;92.0
48892;BME280;50130;52.150;5.236;2023-02-28T02:52:44;102957.0;;;2.77;92.22
48892;BME280;50130;52.150;5.236;2023-02-28T02:54:34;102957.0;;;2.69;92.66
48892;BME280;50130;52.150;5.236;2023-02-28T02:56:13;102958.0;;;2.71;92.76
48892;BME280;50130;52.150;5.236;2023-02-28T02:59:35;102958.99999999999;;;2.73;92.89
48892;BME280;50130;52.150;5.236;2023-02-28T03:01:16;102956.0;;;2.75;92.8
48892;BME280;50130;52.150;5.236;2023-02-28T03:02:55;102954.0;;;2.76;92.55
48892;BME280;50130;52.150;5.236;2023-02-28T03:04:36;102951.0;;;2.75;92.52
48892;BME280;50130;52.150;5.236;2023-02-28T03:07:54;102951.0;;;2.73;92.63
48892;BME280;50130;52.150;5.236;2023-02-28T03:09:33;102951.0;;;2.74;93.2
48892;BME280;50130;52.150;5.236;2023-02-28T03:11:13;102957.0;;;2.72;93.23
48892;BME280;50130;52.150;5.236;2023-02-28T03:16:35;102957.0;;;2.81;92.87
48892;BME280;50130;52.150;5.236;2023-02-28T03:18:23;102961.99999999999;;;2.89;92.73
48892;BME280;50130;52.150;5.236;2023-02-28T03:20:07;102957.0;;;2.83;92.78
48892;BME280;50130;52.150;5.236;2023-02-28T03:22:01;102959.99999999999;;;2.77;92.8
48892;BME280;50130;52.150;5.236;2023-02-28T03:23:45;102955.0;;;2.74;93.17
48892;BME280;50130;52.150;5.236;2023-02-28T03:25:31;102953.0;;;2.76;93.3
48892;BME280;50130;52.150;5.236;2023-02-28T03:29:02;102953.0;;;2.76;93.38
48892;BME280;50130;52.150;5.236;2023-02-28T03:30:47;102951.0;;;2.75;93.1
48892;BME280;50130;52.150;5.236;2023-02-28T03:32:28;102955.0;;;2.76;93.16
48892;BME280;50130;52.150;5.236;2023-02-28T03:34:12;102961.99999999999;;;2.79;93.05
48892;BME280;50130;52.150;5.236;2023-02-28T03:35:55;102958.0;;;2.8;92.88
48892;BME280;50130;52.150;5.236;2023-02-28T03:39:19;102956.0;;;2.84;92.76
48892;BME280;50130;52.150;5.236;2023-02-28T03:41:01;102957.0;;;2.83;92.86
48892;BME280;50130;52.150;5.236;2023-02-28T03:42:43;102956.0;;;2.83;93.03
48892;BME280;50130;52.150;5.236;2023-02-28T03:44:24;102957.0;;;2.81;93.26
48892;BME280;50130;52.150;5.236;2023-02-28T03:47:51;102956.0;;;2.85;93.21
48892;BME280;50130;52.150;5.236;2023-02-28T03:49:32;102958.0;;;2.99;92.72
48892;BME280;50130;52.150;5.236;2023-02-28T03:51:14;102961.99999999999;;;2.92;92.89
48892;BME280;50130;52.150;5.236;2023-02-28T03:52:57;102964.00000000001;;;2.97;92.89
48892;BME280;50130;52.150;5.236;2023-02-28T03:54:41;102967.0;;;2.98;92.81
48892;BME280;50130;52.150;5.236;2023-02-28T03:58:09;102967.0;;;2.91;93.4
48892;BME280;50130;52.150;5.236;2023-02-28T03:59:55;102968.0;;;2.89;93.72
48892;BME280;50130;52.150;5.236;2023-02-28T04:01:38;102972.0;;;2.86;93.47
48892;BME280;50130;52.150;5.236;2023-02-28T04:03:16;102969.0;;;2.9;93.61
48892;BME280;50130;52.150;5.236;2023-02-28T04:06:31;102967.0;;;3.0;93.23
48892;BME280;50130;52.150;5.236;2023-02-28T04:08:08;102970.0;;;2.89;93.66
48892;BME280;50130;52.150;5.236;2023-02-28T04:09:44;102971.0;;;2.89;93.89
48892;BME280;50130;52.150;5.236;2023-02-28T04:13:02;102969.0;;;2.9;94.16
48892;BME280;50130;52.150;5.236;2023-02-28T04:14:38;102973.0;;;2.96;93.98
48892;BME280;50130;52.150;5.236;2023-02-28T04:16:15;102972.0;;;2.94;93.75
48892;BME280;50130;52.150;5.236;2023-02-28T04:17:52;102972.0;;;2.96;93.87
48892;BME280;50130;52.150;5.236;2023-02-28T04:21:04;102974.0;;;2.99;94.1
48892;BME280;50130;52.150;5.236;2023-02-28T04:22:41;102974.0;;;2.98;94.45
48892;BME280;50130;52.150;5.236;2023-02-28T04:24:19;102974.0;;;3.02;94.41
48892;BME280;50130;52.150;5.236;2023-02-28T04:27:33;102973.0;;;3.03;94.25
48892;BME280;50130;52.150;5.236;2023-02-28T04:29:11;102973.0;;;3.11;93.99
48892;BME280;50130;52.150;5.236;2023-02-28T04:30:54;102978.0;;;3.12;94.12
48892;BME280;50130;52.150;5.236;2023-02-28T04:32:31;102974.0;;;3.09;94.47
48892;BME280;50130;52.150;5.236;2023-02-28T04:35:43;102974.0;;;3.09;94.59
48892;BME280;50130;52.150;5.236;2023-02-28T04:37:20;102977.0;;;3.17;94.41
48892;BME280;50130;52.150;5.236;2023-02-28T04:38:56;102979.0;;;3.12;94.82
48892;BME280;50130;52.150;5.236;2023-02-28T04:42:09;102982.0;;;3.08;95.2
48892;BME280;50130;52.150;5.236;2023-02-28T04:43:46;102980.0;;;3.09;95.12
48892;BME280;50130;52.150;5.236;2023-02-28T04:45:22;102976.0;;;3.07;95.06
48892;BME280;50130;52.150;5.236;2023-02-28T04:46:58;102977.0;;;3.07;95.15
48892;BME280;50130;52.150;5.236;2023-02-28T04:50:14;102980.0;;;3.12;95.32
48892;BME280;50130;52.150;5.236;2023-02-28T04:51:50;102981.0;;;3.18;94.93
48892;BME280;50130;52.150;5.236;2023-02-28T04:53:27;102981.0;;;3.17;94.93
48892;BME280;50130;52.150;5.236;2023-02-28T04:56:41;102983.0;;;3.2;94.62
48892;BME280;50130;52.150;5.236;2023-02-28T04:58:18;102980.0;;;3.26;94.3
48892;BME280;50130;52.150;5.236;2023-02-28T04:59:54;102979.0;;;3.28;93.57
48892;BME280;50130;52.150;5.236;2023-02-28T05:03:09;102977.0;;;3.28;92.73
48892;BME280;50130;52.150;5.236;2023-02-28T05:04:45;102979.0;;;3.23;90.1
48892;BME280;50130;52.150;5.236;2023-02-28T05:06:22;102981.0;;;3.2;90.35
48892;BME280;50130;52.150;5.236;2023-02-28T05:07:59;102979.0;;;3.39;88.55
48892;BME280;50130;52.150;5.236;2023-02-28T05:11:16;102981.0;;;3.33;88.59
48892;BME280;50130;52.150;5.236;2023-02-28T05:12:52;102982.0;;;3.3;88.72
48892;BME280;50130;52.150;5.236;2023-02-28T05:14:29;102982.0;;;3.31;88.65
48892;BME280;50130;52.150;5.236;2023-02-28T05:17:42;102982.0;;;3.39;87.29
48892;BME280;50130;52.150;5.236;2023-02-28T05:19:19;102980.0;;;3.35;86.28
48892;BME280;50130;52.150;5.236;2023-02-28T05:20:55;102979.0;;;3.41;85.54
48892;BME280;50130;52.150;5.236;2023-02-28T05:22:31;102980.0;;;3.42;86.0
48892;BME280;50130;52.150;5.236;2023-02-28T05:25:48;102977.0;;;3.53;83.96
48892;BME280;50130;52.150;5.236;2023-02-28T05:27:24;102980.0;;;3.36;84.93
48892;BME280;50130;52.150;5.236;2023-02-28T05:30:36;102989.00000000001;;;3.37;84.92
48892;BME280;50130;52.150;5.236;2023-02-28T05:32:12;102989.00000000001;;;3.4;84.75
48892;BME280;50130;52.150;5.236;2023-02-28T05:33:49;102990.00000000001;;;3.36;84.11
48892;BME280;50130;52.150;5.236;2023-02-28T05:35:26;102992.0;;;3.39;84.14
48892;BME280;50130;52.150;5.236;2023-02-28T05:38:39;102993.0;;;3.39;84.45
48892;BME280;50130;52.150;5.236;2023-02-28T05:40:15;102992.0;;;3.42;84.17
48892;BME280;50130;52.150;5.236;2023-02-28T05:41:52;102990.00000000001;;;3.41;83.12
48892;BME280;50130;52.150;5.236;2023-02-28T05:43:28;102993.0;;;3.55;82.46
48892;BME280;50130;52.150;5.236;2023-02-28T05:46:41;102994.0;;;3.44;82.44
48892;BME280;50130;52.150;5.236;2023-02-28T05:48:17;102994.0;;;3.46;83.22
48892;BME280;50130;52.150;5.236;2023-02-28T05:49:53;102998.0;;;3.34;83.68
48892;BME280;50130;52.150;5.236;2023-02-28T05:53:06;103002.0;;;3.2;85.27
48892;BME280;50130;52.150;5.236;2023-02-28T05:54:42;102997.0;;;3.26;85.9
48892;BME280;50130;52.150;5.236;2023-02-28T05:56:18;102995.0;;;3.25;86.21
48892;BME280;50130;52.150;5.236;2023-02-28T05:59:30;102999.0;;;3.31;86.28
48892;BME280;50130;52.150;5.236;2023-02-28T06:01:32;102997.0;;;3.21;87.25
48892;BME280;50130;52.150;5.236;2023-02-28T06:03:09;102996.0;;;3.33;86.86
48892;BME280;50130;52.150;5.236;2023-02-28T06:04:45;102997.0;;;3.24;87.56
48892;BME280;50130;52.150;5.236;2023-02-28T06:07:58;102995.0;;;3.11;88.93
48892;BME280;50130;52.150;5.236;2023-02-28T06:09:34;102995.0;;;3.06;89.43
48892;BME280;50130;52.150;5.236;2023-02-28T06:11:11;103000.0;;;3.15;89.28
48892;BME280;50130;52.150;5.236;2023-02-28T06:12:48;103002.0;;;3.17;89.61
48892;BME280;50130;52.150;5.236;2023-02-28T06:16:01;103003.0;;;2.99;90.71
48892;BME280;50130;52.150;5.236;2023-02-28T06:17:37;103001.0;;;2.96;90.66
48892;BME280;50130;52.150;5.236;2023-02-28T06:19:13;102998.0;;;2.92;91.19
48892;BME280;50130;52.150;5.236;2023-02-28T06:22:28;103015.00000000001;;;2.92;91.48
48892;BME280;50130;52.150;5.236;2023-02-28T06:24:05;103005.0;;;2.85;92.13
48892;BME280;50130;52.150;5.236;2023-02-28T06:25:44;103004.0;;;2.8;92.29
48892;BME280;50130;52.150;5.236;2023-02-28T06:27:21;103006.0;;;2.69;92.93
48892;BME280;50130;52.150;5.236;2023-02-28T06:30:33;103009.99999999999;;;2.73;92.83
48892;BME280;50130;52.150;5.236;2023-02-28T06:32:09;103003.0;;;2.64;93.29
48892;BME280;50130;52.150;5.236;2023-02-28T06:33:45;103002.0;;;2.64;93.41
48892;BME280;50130;52.150;5.236;2023-02-28T06:36:59;103007.0;;;2.63;93.7
48892;BME280;50130;52.150;5.236;2023-02-28T06:38:36;103003.0;;;2.66;93.52
48892;BME280;50130;52.150;5.236;2023-02-28T06:40:14;103003.0;;;2.63;93.88
48892;BME280;50130;52.150;5.236;2023-02-28T06:43:29;103005.0;;;2.62;94.18
48892;BME280;50130;52.150;5.236;2023-02-28T06:45:06;102997.0;;;2.62;94.21
48892;BME280;50130;52.150;5.236;2023-02-28T06:46:43;102997.0;;;2.57;94.56
48892;BME280;50130;52.150;5.236;2023-02-28T06:48:20;103008.0;;;2.54;94.88
48892;BME280;50130;52.150;5.236;2023-02-28T06:51:33;103000.0;;;2.54;95.0
48892;BME280;50130;52.150;5.236;2023-02-28T06:53:09;103005.0;;;2.54;94.93
48892;BME280;50130;52.150;5.236;2023-02-28T06:54:45;103013.00000000001;;;2.56;95.06
48892;BME280;50130;52.150;5.236;2023-02-28T06:57:58;103016.00000000001;;;2.52;95.1
48892;BME280;50130;52.150;5.236;2023-02-28T06:59:35;103014.00000000001;;;2.56;95.21
48892;BME280;50130;52.150;5.236;2023-02-28T07:01:11;103006.0;;;2.58;95.1
48892;BME280;50130;52.150;5.236;2023-02-28T07:04:25;103000.0;;;2.72;94.91
48892;BME280;50130;52.150;5.236;2023-02-28T07:06:02;103008.99999999999;;;2.78;94.81
48892;BME280;50130;52.150;5.236;2023-02-28T07:07:38;103018.0;;;2.72;95.12
48892;BME280;50130;52.150;5.236;2023-02-28T07:09:15;103016.00000000001;;;2.67;95.57
48892;BME280;50130;52.150;5.236;2023-02-28T07:12:29;103008.99999999999;;;2.67;95.46
48892;BME280;50130;52.150;5.236;2023-02-28T07:14:05;103011.99999999999;;;2.63;95.79
48892;BME280;50130;52.150;5.236;2023-02-28T07:15:41;103014.00000000001;;;2.67;95.62
48892;BME280;50130;52.150;5.236;2023-02-28T07:18:53;103017.0;;;2.73;95.76
48892;BME280;50130;52.150;5.236;2023-02-28T07:20:30;103014.00000000001;;;2.7;95.78
48892;BME280;50130;52.150;5.236;2023-02-28T07:22:07;103007.0;;;2.68;96.05
48892;BME280;50130;52.150;5.236;2023-02-28T07:25:20;103006.0;;;2.71;96.03
48892;BME280;50130;52.150;5.236;2023-02-28T07:26:56;103008.0;;;2.79;96.21
48892;BME280;50130;52.150;5.236;2023-02-28T07:28:33;103008.0;;;2.87;95.85
48892;BME280;50130;52.150;5.236;2023-02-28T07:30:10;103015.00000000001;;;2.8;95.96
48892;BME280;50130;52.150;5.236;2023-02-28T07:33:22;103017.0;;;2.76;96.35
48892;BME280;50130;52.150;5.236;2023-02-28T07:34:59;103017.0;;;2.88;96.16
48892;BME280;50130;52.150;5.236;2023-02-28T07:36:35;103009.99999999999;;;2.76;96.24
48892;BME280;50130;52.150;5.236;2023-02-28T07:39:47;103008.0;;;2.94;95.9
48892;BME280;50130;52.150;5.236;2023-02-28T07:41:23;103007.0;;;3.05;95.48
48892;BME280;50130;52.150;5.236;2023-02-28T07:43:00;103013.00000000001;;;3.07;95.2
48892;BME280;50130;52.150;5.236;2023-02-28T07:46:15;103021.0;;;3.0;95.53
48892;BME280;50130;52.150;5.236;2023-02-28T07:47:52;103022.0;;;2.93;96.34
48892;BME280;50130;52.150;5.236;2023-02-28T07:49:29;103022.0;;;2.92;96.55
48892;BME280;50130;52.150;5.236;2023-02-28T07:51:05;103020.0;;;2.9;96.63
48892;BME280;50130;52.150;5.236;2023-02-28T07:54:18;103019.0;;;2.91;96.61
48892;BME280;50130;52.150;5.236;2023-02-28T07:55:55;103014.00000000001;;;3.08;95.99
48892;BME280;50130;52.150;5.236;2023-02-28T07:57:31;103016.00000000001;;;3.06;96.59
48892;BME280;50130;52.150;5.236;2023-02-28T08:00:44;103025.0;;;2.99;96.61
48892;BME280;50130;52.150;5.236;2023-02-28T08:02:20;103025.0;;;2.87;96.8
48892;BME280;50130;52.150;5.236;2023-02-28T08:03:56;103018.0;;;2.89;96.99
48892;BME280;50130;52.150;5.236;2023-02-28T08:07:08;103016.00000000001;;;3.02;96.43
48892;BME280;50130;52.150;5.236;2023-02-28T08:08:45;103018.0;;;3.02;96.72
48892;BME280;50130;52.150;5.236;2023-02-28T08:10:20;103024.0;;;2.96;96.62
48892;BME280;50130;52.150;5.236;2023-02-28T08:11:57;103030.0;;;2.98;97.0
48892;BME280;50130;52.150;5.236;2023-02-28T08:15:09;103039.00000000001;;;3.04;97.04
48892;BME280;50130;52.150;5.236;2023-02-28T08:16:46;103039.00000000001;;;3.09;96.72
48892;BME280;50130;52.150;5.236;2023-02-28T08:18:23;103033.0;;;3.07;96.75
48892;BME280;50130;52.150;5.236;2023-02-28T08:21:36;103034.99999999999;;;3.12;96.98
48892;BME280;50130;52.150;5.236;2023-02-28T08:23:12;103031.0;;;3.13;96.89
48892;BME280;50130;52.150;5.236;2023-02-28T08:24:49;103034.99999999999;;;3.2;96.93
48892;BME280;50130;52.150;5.236;2023-02-28T08:28:02;103042.0;;;3.22;96.67
48892;BME280;50130;52.150;5.236;2023-02-28T08:29:38;103044.0;;;3.12;96.86
48892;BME280;50130;52.150;5.236;2023-02-28T08:31:16;103045.0;;;3.17;97.42
48892;BME280;50130;52.150;5.236;2023-02-28T08:32:53;103047.0;;;3.24;97.26
48892;BME280;50130;52.150;5.236;2023-02-28T08:36:06;103033.0;;;3.26;97.26
48892;BME280;50130;52.150;5.236;2023-02-28T08:37:43;103034.99999999999;;;3.41;96.88
48892;BME280;50130;52.150;5.236;2023-02-28T08:39:19;103045.0;;;3.43;96.58
48892;BME280;50130;52.150;5.236;2023-02-28T08:42:34;103043.0;;;3.5;96.71
48892;BME280;50130;52.150;5.236;2023-02-28T08:44:12;103043.0;;;3.52;96.52
48892;BME280;50130;52.150;5.236;2023-02-28T08:45:51;103042.0;;;3.77;96.11
48892;BME280;50130;52.150;5.236;2023-02-28T08:49:03;103046.0;;;3.7;96.21
48892;BME280;50130;52.150;5.236;2023-02-28T08:50:39;103050.0;;;3.81;95.95
48892;BME280;50130;52.150;5.236;2023-02-28T08:52:16;103042.0;;;3.8;96.02
48892;BME280;50130;52.150;5.236;2023-02-28T08:53:54;103051.0;;;3.77;95.93
48892;BME280;50130;52.150;5.236;2023-02-28T08:57:06;103045.0;;;3.82;96.57
48892;BME280;50130;52.150;5.236;2023-02-28T08:58:43;103043.0;;;3.82;95.83
48892;BME280;50130;52.150;5.236;2023-02-28T09:00:21;103033.99999999999;;;3.86;94.96
48892;BME280;50130;52.150;5.236;2023-02-28T09:03:34;103032.0;;;3.95;94.72
48892;BME280;50130;52.150;5.236;2023-02-28T09:05:10;103033.0;;;3.98;94.07
48892;BME280;50130;52.150;5.236;2023-02-28T09:06:46;103048.0;;;3.95;93.88
48892;BME280;50130;52.150;5.236;2023-02-28T09:09:59;103051.0;;;3.96;93.45
48892;BME280;50130;52.150;5.236;2023-02-28T09:11:36;103054.0;;;4.03;93.46
48892;BME280;50130;52.150;5.236;2023-02-28T09:13:12;103053.0;;;4.03;93.03
48892;BME280;50130;52.150;5.236;2023-02-28T09:14:49;103048.0;;;4.09;92.84
48892;BME280;50130;52.150;5.236;2023-02-28T09:18:01;103051.0;;;4.16;91.12
48892;BME280;50130;52.150;5.236;2023-02-28T09:19:37;103046.0;;;4.24;92.19
48892;BME280;50130;52.150;5.236;2023-02-28T09:21:15;103043.0;;;4.32;89.39
48892;BME280;50130;52.150;5.236;2023-02-28T09:24:28;103048.0;;;4.33;88.92
48892;BME280;50130;52.150;5.236;2023-02-28T09:26:05;103055.0;;;4.3;89.5
48892;BME280;50130;52.150;5.236;2023-02-28T09:27:42;103040.00000000001;;;4.32;89.32
48892;BME280;50130;52.150;5.236;2023-02-28T09:30:54;103051.0;;;4.36;88.14
48892;BME280;50130;52.150;5.236;2023-02-28T09:32:31;103044.0;;;4.45;88.26
48892;BME280;50130;52.150;5.236;2023-02-28T09:34:07;103053.0;;;4.62;85.68
48892;BME280;50130;52.150;5.236;2023-02-28T09:35:43;103054.0;;;4.47;85.69
48892;BME280;50130;52.150;5.236;2023-02-28T09:38:56;103055.0;;;4.5;85.55
48892;BME280;50130;52.150;5.236;2023-02-28T09:40:35;103048.0;;;4.58;80.61
48892;BME280;50130;52.150;5.236;2023-02-28T09:42:21;103053.0;;;4.67;79.74
48892;BME280;50130;52.150;5.236;2023-02-28T09:44:07;103053.0;;;4.64;78.58
48892;BME280;50130;52.150;5.236;2023-02-28T09:47:33;103054.0;;;4.72;77.27
48892;BME280;50130;52.150;5.236;2023-02-28T09:49:14;103054.0;;;4.83;79.27
48892;BME280;50130;52.150;5.236;2023-02-28T09:50:55;103061.99999999999;;;5.07;77.77
48892;BME280;50130;52.150;5.236;2023-02-28T09:52:37;103063.00000000001;;;5.11;72.39
48892;BME280;50130;52.150;5.236;2023-02-28T09:55:55;103058.0;;;5.16;75.61
48892;BME280;50130;52.150;5.236;2023-02-28T09:57:37;103059.99999999999;;;5.29;73.2
48892;BME280;50130;52.150;5.236;2023-02-28T09:59:25;103057.0;;;5.37;75.95
48892;BME280;50130;52.150;5.236;2023-02-28T10:01:21;103061.99999999999;;;5.58;76.03
48892;BME280;50130;52.150;5.236;2023-02-28T10:03:20;103066.00000000001;;;5.68;74.36
48892;BME280;50130;52.150;5.236;2023-02-28T10:05:06;103065.00000000001;;;5.78;70.88
48892;BME280;50130;52.150;5.236;2023-02-28T10:08:26;103065.00000000001;;;5.72;70.86
48892;BME280;50130;52.150;5.236;2023-02-28T10:12:00;103055.0;;;5.92;66.41
48892;BME280;50130;52.150;5.236;2023-02-28T10:13:50;103064.00000000001;;;5.95;65.08
48892;BME280;50130;52.150;5.236;2023-02-28T10:15:30;103059.99999999999;;;5.93;59.25
48892;BME280;50130;52.150;5.236;2023-02-28T10:18:52;103059.99999999999;;;6.0;59.47
48892;BME280;50130;52.150;5.236;2023-02-28T10:20:37;103058.99999999999;;;6.02;58.27
48892;BME280;50130;52.150;5.236;2023-02-28T10:22:17;103057.0;;;6.16;60.87
48892;BME280;50130;52.150;5.236;2023-02-28T10:24:02;103063.00000000001;;;6.03;61.45
48892;BME280;50130;52.150;5.236;2023-02-28T10:25:57;103057.0;;;6.07;60.27
48892;BME280;50130;52.150;5.236;2023-02-28T10:29:11;103058.0;;;6.15;62.04
48892;BME280;50130;52.150;5.236;2023-02-28T10:30:49;103054.0;;;6.18;60.31
48892;BME280;50130;52.150;5.236;2023-02-28T10:32:27;103054.0;;;6.1;60.36
48892;BME280;50130;52.150;5.236;2023-02-28T10:35:47;103050.0;;;6.23;60.05
48892;BME280;50130;52.150;5.236;2023-02-28T10:37:25;103054.0;;;6.42;59.83
48892;BME280;50130;52.150;5.236;2023-02-28T10:39:34;103057.0;;;6.49;58.65
48892;BME280;50130;52.150;5.236;2023-02-28T10:41:13;103057.0;;;6.65;59.23
48892;BME280;50130;52.150;5.236;2023-02-28T10:42:55;103057.0;;;6.68;53.74
48892;BME280;50130;52.150;5.236;2023-02-28T10:46:14;103048.0;;;6.91;52.56
48892;BME280;50130;52.150;5.236;2023-02-28T10:47:54;103049.0;;;6.9;50.86
48892;BME280;50130;52.150;5.236;2023-02-28T10:49:31;103045.0;;;6.91;57.79
48892;BME280;50130;52.150;5.236;2023-02-28T10:51:08;103050.0;;;7.01;52.67
48892;BME280;50130;52.150;5.236;2023-02-28T10:54:24;103045.0;;;6.82;48.48
48892;BME280;50130;52.150;5.236;2023-02-28T10:56:05;103041.00000000001;;;7.08;52.09
48892;BME280;50130;52.150;5.236;2023-02-28T10:57:49;103038.00000000001;;;7.09;51.29
48892;BME280;50130;52.150;5.236;2023-02-28T10:59:29;103039.00000000001;;;7.23;52.77
48892;BME280;50130;52.150;5.236;2023-02-28T11:02:50;103034.99999999999;;;7.07;51.55
48892;BME280;50130;52.150;5.236;2023-02-28T11:04:35;103031.0;;;7.03;52.75
48892;BME280;50130;52.150;5.236;2023-02-28T11:06:16;103026.0;;;7.2;52.74
48892;BME280;50130;52.150;5.236;2023-02-28T11:07:56;103022.0;;;7.25;49.19
48892;BME280;50130;52.150;5.236;2023-02-28T11:11:15;103019.0;;;7.29;53.98
48892;BME280;50130;52.150;5.236;2023-02-28T11:12:54;103023.0;;;7.56;50.4